Time;durP1;ratioP1;P1;durP2;ratioP2;P2;SDS_P1;SDS_P2;PMS_P1;PMS_P2;Temp;Humidity;BMP_temperature;BMP_pressure;BME280_temperature;BME280_humidity;BME280_pressure;Samples;Min_cycle;Max_cycle;Signal;HPM_P1;HPM_P2
2021/04/13 00:01:13;;;;;;;11.60;1.90;;;;;;;;;;4331059;33;20255;-73
2021/04/13 00:03:44;;;;;;;7.00;2.30;;;;;;;;;;4332508;33;20221;-73
2021/04/13 00:06:13;;;;;;;4.00;1.80;;;;;;;;;;4331018;33;20155;-73
2021/04/13 00:08:39;;;;;;;2.93;1.60;;;;;;;;;;4343501;33;20163;-73
2021/04/13 00:11:07;;;;;;;5.17;2.03;;;;;;;;;;4331892;33;20170;-74
2021/04/13 00:13:33;;;;;;;3.57;1.83;;;;;;;;;;4330588;33;20162;-73
2021/04/13 00:16:19;;;;;;;8.67;2.33;;;;;;;;;;4331971;33;20193;-73
2021/04/13 00:18:45;;;;;;;8.23;2.03;;;;;;;;;;4342204;33;20242;-74
2021/04/13 00:21:13;;;;;;;8.57;2.40;;;;;;;;;;4342575;33;20160;-73
2021/04/13 00:23:38;;;;;;;6.70;1.97;;;;;;;;;;4342546;33;20167;-73
2021/04/13 00:26:05;;;;;;;8.10;1.70;;;;;;;;;;4331678;33;20230;-73
2021/04/13 00:28:33;;;;;;;9.07;2.20;;;;;;;;;;4330708;33;20160;-73
2021/04/13 00:31:00;;;;;;;5.37;1.73;;;;;;;;;;4330191;33;20189;-73
2021/04/13 00:33:27;;;;;;;6.70;1.90;;;;;;;;;;4342845;33;20432;-73
2021/04/13 00:38:36;;;;;;;8.53;1.80;;;;;;;;;;4331771;33;20134;-73
2021/04/13 00:41:12;;;;;;;5.77;1.93;;;;;;;;;;4330274;33;20198;-73
2021/04/13 00:43:39;;;;;;;5.70;2.00;;;;;;;;;;4342575;33;20217;-74
2021/04/13 00:46:05;;;;;;;5.20;1.60;;;;;;;;;;4339829;33;20222;-73
2021/04/13 00:48:32;;;;;;;4.90;1.40;;;;;;;;;;4332137;33;20135;-73
2021/04/13 00:51:06;;;;;;;5.07;2.00;;;;;;;;;;4329942;33;20215;-73
2021/04/13 00:53:33;;;;;;;7.47;1.87;;;;;;;;;;4332028;33;20132;-73
2021/04/13 00:56:01;;;;;;;5.63;1.73;;;;;;;;;;4318302;33;20517;-73
2021/04/13 00:58:47;;;;;;;6.63;1.83;;;;;;;;;;4330106;33;20175;-73
2021/04/13 01:01:16;;;;;;;8.53;2.10;;;;;;;;;;4329956;33;20171;-73
2021/04/13 01:04:01;;;;;;;9.07;1.70;;;;;;;;;;4331546;33;20139;-73
2021/04/13 01:06:29;;;;;;;5.67;1.60;;;;;;;;;;4330278;33;20159;-73
2021/04/13 01:09:12;;;;;;;4.30;1.83;;;;;;;;;;4329785;33;20156;-73
2021/04/13 01:11:47;;;;;;;4.37;1.80;;;;;;;;;;4331034;33;20191;-73
2021/04/13 01:14:12;;;;;;;8.10;1.83;;;;;;;;;;4331215;33;20260;-73
2021/04/13 01:16:55;;;;;;;5.97;2.03;;;;;;;;;;4331440;33;20656;-73
2021/04/13 01:19:29;;;;;;;10.13;2.47;;;;;;;;;;4330246;33;20174;-73
2021/04/13 01:22:07;;;;;;;6.27;2.20;;;;;;;;;;4329591;33;20159;-73
2021/04/13 01:24:36;;;;;;;7.47;2.00;;;;;;;;;;4329586;33;20154;-73
2021/04/13 01:27:27;;;;;;;4.20;2.10;;;;;;;;;;4329976;33;20186;-73
2021/04/13 01:29:53;;;;;;;5.00;2.03;;;;;;;;;;4333869;33;20214;-73
2021/04/13 01:32:19;;;;;;;7.30;2.27;;;;;;;;;;4330953;33;20132;-73
2021/04/13 01:34:54;;;;;;;8.30;2.57;;;;;;;;;;4317219;33;20186;-73
2021/04/13 01:39:59;;;;;;;10.90;2.30;;;;;;;;;;4330860;33;20503;-74
2021/04/13 01:42:26;;;;;;;9.70;2.60;;;;;;;;;;4317757;33;20152;-73
2021/04/13 01:44:57;;;;;;;6.57;2.10;;;;;;;;;;4330738;33;20136;-73
2021/04/13 01:47:23;;;;;;;11.37;2.30;;;;;;;;;;4329415;33;20547;-73
2021/04/13 01:49:51;;;;;;;6.83;2.43;;;;;;;;;;4329593;33;20473;-73
2021/04/13 01:52:24;;;;;;;7.43;2.40;;;;;;;;;;4329406;33;20167;-73
2021/04/13 01:54:50;;;;;;;12.07;2.50;;;;;;;;;;4329750;33;20185;-73
2021/04/13 01:57:26;;;;;;;8.17;2.23;;;;;;;;;;4317181;33;20160;-73
2021/04/13 01:59:53;;;;;;;7.50;3.53;;;;;;;;;;4316957;33;20175;-73
2021/04/13 02:02:26;;;;;;;7.30;2.50;;;;;;;;;;4330098;33;20184;-73
2021/04/13 02:04:54;;;;;;;6.00;2.27;;;;;;;;;;4329281;33;20151;-73
2021/04/13 02:07:40;;;;;;;4.73;2.67;;;;;;;;;;4317591;33;20155;-73
2021/04/13 02:10:18;;;;;;;9.10;2.40;;;;;;;;;;4330825;33;20136;-73
2021/04/13 02:12:44;;;;;;;6.80;2.60;;;;;;;;;;4329945;33;20207;-73
2021/04/13 02:15:32;;;;;;;10.47;2.60;;;;;;;;;;4329090;33;20196;-73
2021/04/13 02:18:00;;;;;;;10.13;2.40;;;;;;;;;;4329370;33;20199;-73
2021/04/13 02:20:31;;;;;;;6.67;2.10;;;;;;;;;;4330497;33;20151;-73
2021/04/13 02:22:57;;;;;;;8.47;2.47;;;;;;;;;;4329384;33;20178;-73
2021/04/13 02:25:25;;;;;;;6.10;2.20;;;;;;;;;;4329255;33;20159;-73
2021/04/13 02:27:51;;;;;;;6.30;1.90;;;;;;;;;;4328977;33;20168;-73
2021/04/13 02:30:18;;;;;;;7.33;2.23;;;;;;;;;;4329548;33;20156;-73
2021/04/13 02:32:47;;;;;;;11.40;2.53;;;;;;;;;;4316831;33;20597;-73
2021/04/13 02:35:23;;;;;;;7.50;2.10;;;;;;;;;;4330052;33;20134;-73
2021/04/13 02:37:51;;;;;;;4.97;2.00;;;;;;;;;;4329278;33;20203;-73
2021/04/13 02:40:36;;;;;;;10.57;2.20;;;;;;;;;;4328877;33;20655;-73
2021/04/13 02:43:07;;;;;;;5.73;2.10;;;;;;;;;;4331618;33;20159;-73
2021/04/13 02:45:34;;;;;;;7.60;1.93;;;;;;;;;;4332236;33;20163;-73
2021/04/13 02:48:17;;;;;;;6.17;2.67;;;;;;;;;;4331853;33;20580;-73
2021/04/13 02:50:44;;;;;;;3.93;1.83;;;;;;;;;;4332003;33;20613;-73
2021/04/13 02:53:11;;;;;;;5.27;2.20;;;;;;;;;;4332865;33;20143;-74
2021/04/13 02:55:37;;;;;;;4.77;1.77;;;;;;;;;;4331893;33;20170;-75
2021/04/13 02:58:04;;;;;;;5.83;2.10;;;;;;;;;;4331932;33;20218;-73
2021/04/13 03:00:37;;;;;;;5.47;2.10;;;;;;;;;;4332957;33;20171;-73
2021/04/13 03:03:11;;;;;;;7.23;2.27;;;;;;;;;;4331556;33;20155;-73
2021/04/13 03:05:37;;;;;;;6.10;2.07;;;;;;;;;;4331594;33;20156;-73
2021/04/13 03:08:05;;;;;;;6.33;2.00;;;;;;;;;;4333600;33;20190;-73
2021/04/13 03:10:33;;;;;;;8.57;2.47;;;;;;;;;;4333372;33;20530;-73
2021/04/13 03:13:00;;;;;;;5.70;2.03;;;;;;;;;;4331422;33;20237;-73
2021/04/13 03:15:29;;;;;;;8.73;2.50;;;;;;;;;;4332550;33;20269;-73
2021/04/13 03:17:59;;;;;;;4.80;2.10;;;;;;;;;;4331332;33;20564;-73
2021/04/13 03:20:27;;;;;;;8.67;2.67;;;;;;;;;;4331238;33;20175;-73
2021/04/13 03:22:53;;;;;;;9.20;2.27;;;;;;;;;;4331468;33;20189;-73
2021/04/13 03:25:21;;;;;;;8.50;2.40;;;;;;;;;;4331526;33;20167;-72
2021/04/13 03:27:47;;;;;;;11.17;2.40;;;;;;;;;;4332727;33;20136;-73
2021/04/13 03:30:13;;;;;;;5.40;2.10;;;;;;;;;;4319557;33;20226;-73
2021/04/13 03:32:40;;;;;;;7.03;2.30;;;;;;;;;;4332593;33;20531;-73
2021/04/13 03:35:06;;;;;;;3.60;1.97;;;;;;;;;;4333041;33;20136;-72
2021/04/13 03:37:32;;;;;;;10.13;2.63;;;;;;;;;;4331655;33;20158;-72
2021/04/13 03:40:01;;;;;;;7.53;2.30;;;;;;;;;;4330894;33;20162;-72
2021/04/13 03:42:27;;;;;;;5.73;1.87;;;;;;;;;;4331271;33;20189;-72
2021/04/13 03:44:53;;;;;;;5.67;2.40;;;;;;;;;;4332553;33;20127;-72
2021/04/13 03:47:20;;;;;;;5.70;2.10;;;;;;;;;;4332227;33;20223;-72
2021/04/13 03:49:46;;;;;;;7.60;2.50;;;;;;;;;;4330916;33;20186;-72
2021/04/13 03:52:32;;;;;;;12.07;3.20;;;;;;;;;;4318943;33;20163;-73
2021/04/13 03:55:10;;;;;;;7.70;2.50;;;;;;;;;;4330751;33;20313;-73
2021/04/13 03:57:36;;;;;;;9.13;2.57;;;;;;;;;;4319290;33;20171;-73
2021/04/13 04:00:03;;;;;;;7.77;2.50;;;;;;;;;;4330695;33;20250;-73
2021/04/13 04:02:31;;;;;;;8.30;2.67;;;;;;;;;;4331623;33;20178;-72
2021/04/13 04:05:07;;;;;;;8.67;2.60;;;;;;;;;;4331923;33;20160;-71
2021/04/13 04:07:37;;;;;;;14.63;2.03;;;;;;;;;;4332096;33;20250;-72
2021/04/13 04:10:22;;;;;;;6.07;2.20;;;;;;;;;;4330686;33;20597;-72
2021/04/13 04:12:56;;;;;;;12.03;2.70;;;;;;;;;;4330612;33;20193;-72
2021/04/13 04:15:26;;;;;;;15.77;3.33;;;;;;;;;;4332205;33;20166;-72
2021/04/13 04:17:51;;;;;;;4.97;2.47;;;;;;;;;;4332203;33;20155;-72
2021/04/13 04:20:16;;;;;;;10.93;2.70;;;;;;;;;;4330565;33;20163;-72
2021/04/13 04:22:51;;;;;;;9.67;2.80;;;;;;;;;;4331866;33;20159;-74
2021/04/13 04:25:32;;;;;;;10.37;2.77;;;;;;;;;;4330462;33;20155;-73
2021/04/13 04:27:59;;;;;;;8.93;2.80;;;;;;;;;;4318976;33;20523;-73
2021/04/13 04:30:32;;;;;;;7.93;2.87;;;;;;;;;;4330659;33;20237;-73
2021/04/13 04:32:58;;;;;;;9.50;3.53;;;;;;;;;;4330299;33;20513;-73
2021/04/13 04:35:39;;;;;;;10.77;3.20;;;;;;;;;;4331795;33;20147;-72
2021/04/13 04:38:07;;;;;;;8.30;2.83;;;;;;;;;;4331671;33;20158;-73
2021/04/13 04:40:36;;;;;;;8.23;2.70;;;;;;;;;;4330406;33;20294;-72
2021/04/13 04:43:04;;;;;;;12.00;3.17;;;;;;;;;;4331562;33;20182;-72
2021/04/13 04:45:47;;;;;;;13.67;3.40;;;;;;;;;;4330022;33;20224;-72
2021/04/13 04:48:18;;;;;;;7.70;3.27;;;;;;;;;;4331923;33;20124;-72
2021/04/13 04:50:45;;;;;;;9.00;3.03;;;;;;;;;;4329662;33;20156;-73
2021/04/13 04:53:11;;;;;;;9.23;3.07;;;;;;;;;;4330560;33;20152;-72
2021/04/13 04:55:36;;;;;;;10.47;3.90;;;;;;;;;;4331679;33;20202;-73
2021/04/13 04:58:01;;;;;;;15.83;3.50;;;;;;;;;;4329878;33;20621;-73
2021/04/13 05:00:26;;;;;;;11.07;3.60;;;;;;;;;;4329619;33;20539;-72
2021/04/13 05:02:52;;;;;;;8.53;3.50;;;;;;;;;;4330039;33;20596;-71
2021/04/13 05:05:17;;;;;;;9.47;3.10;;;;;;;;;;4330653;33;20195;-72
2021/04/13 05:07:42;;;;;;;12.63;3.80;;;;;;;;;;4330887;33;20139;-71
2021/04/13 05:10:08;;;;;;;12.53;3.87;;;;;;;;;;4329654;33;20656;-71
2021/04/13 05:12:33;;;;;;;11.53;4.10;;;;;;;;;;4330212;33;20178;-71
2021/04/13 05:14:58;;;;;;;12.23;3.70;;;;;;;;;;4330296;33;20559;-74
2021/04/13 05:17:25;;;;;;;9.43;3.27;;;;;;;;;;4331276;33;20136;-72
2021/04/13 05:19:50;;;;;;;12.60;3.83;;;;;;;;;;4330526;33;20286;-72
2021/04/13 05:22:15;;;;;;;9.47;3.77;;;;;;;;;;4329548;33;20577;-72
2021/04/13 05:24:40;;;;;;;13.70;4.13;;;;;;;;;;4329894;33;20190;-73
2021/04/13 05:27:06;;;;;;;9.67;4.33;;;;;;;;;;4329365;33;20164;-72
2021/04/13 05:29:31;;;;;;;8.63;3.40;;;;;;;;;;4317291;33;20187;-72
2021/04/13 05:31:56;;;;;;;8.60;3.40;;;;;;;;;;4330783;33;20224;-72
2021/04/13 05:34:22;;;;;;;9.70;3.60;;;;;;;;;;4329199;33;20160;-72
2021/04/13 05:36:50;;;;;;;8.33;3.20;;;;;;;;;;4329580;33;20180;-72
2021/04/13 05:39:15;;;;;;;12.40;3.30;;;;;;;;;;4329909;33;20254;-73
2021/04/13 05:41:43;;;;;;;14.83;3.73;;;;;;;;;;4330224;33;20136;-72
2021/04/13 05:44:08;;;;;;;12.63;3.87;;;;;;;;;;4330453;33;20179;-72
2021/04/13 05:46:34;;;;;;;13.20;3.60;;;;;;;;;;4329538;33;20209;-71
2021/04/13 05:49:00;;;;;;;13.47;3.50;;;;;;;;;;4329268;33;20174;-72
2021/04/13 05:51:25;;;;;;;13.13;3.63;;;;;;;;;;4330079;33;20170;-73
2021/04/13 05:53:51;;;;;;;8.13;2.97;;;;;;;;;;4330643;33;20226;-72
2021/04/13 05:56:18;;;;;;;10.23;3.10;;;;;;;;;;4329961;33;20136;-73
2021/04/13 05:58:45;;;;;;;12.00;3.67;;;;;;;;;;4326899;33;20163;-73
2021/04/13 06:01:11;;;;;;;7.67;3.10;;;;;;;;;;4329199;33;20533;-72
2021/04/13 06:03:37;;;;;;;5.77;3.17;;;;;;;;;;4327787;33;20159;-72
2021/04/13 06:06:02;;;;;;;13.00;3.60;;;;;;;;;;4329776;33;20612;-72
2021/04/13 06:08:27;;;;;;;10.53;2.80;;;;;;;;;;4330066;33;20548;-72
2021/04/13 06:10:53;;;;;;;10.03;2.80;;;;;;;;;;4328653;33;20211;-72
2021/04/13 06:13:18;;;;;;;12.00;3.10;;;;;;;;;;4328779;33;20187;-72
2021/04/13 06:15:44;;;;;;;12.07;3.00;;;;;;;;;;4328804;33;20186;-73
2021/04/13 06:18:09;;;;;;;10.77;2.70;;;;;;;;;;4333529;33;20207;-73
2021/04/13 06:20:35;;;;;;;8.33;2.90;;;;;;;;;;4334780;33;20144;-70
2021/04/13 06:23:00;;;;;;;12.47;3.23;;;;;;;;;;4331916;33;20175;-72
2021/04/13 06:25:28;;;;;;;8.27;2.60;;;;;;;;;;4320360;33;20163;-72
2021/04/13 06:27:55;;;;;;;8.50;2.60;;;;;;;;;;4321054;33;20171;-72
2021/04/13 06:30:22;;;;;;;6.10;2.40;;;;;;;;;;4335289;33;20175;-72
2021/04/13 06:32:47;;;;;;;9.60;2.87;;;;;;;;;;4333840;33;20159;-73
2021/04/13 06:35:13;;;;;;;8.73;2.57;;;;;;;;;;4334021;33;20559;-70
2021/04/13 06:37:40;;;;;;;6.67;1.97;;;;;;;;;;4334689;33;20274;-72
2021/04/13 06:40:07;;;;;;;8.13;1.97;;;;;;;;;;4333924;33;20231;-72
2021/04/13 06:42:46;;;;;;;9.90;2.00;;;;;;;;;;4327606;33;20237;-72
2021/04/13 06:45:31;;;;;;;7.83;2.33;;;;;;;;;;4322764;33;20195;-73
2021/04/13 06:48:11;;;;;;;4.63;1.53;;;;;;;;;;4321262;33;20194;-73
2021/04/13 06:50:44;;;;;;;6.90;1.77;;;;;;;;;;4334182;33;20218;-73
2021/04/13 06:53:18;;;;;;;6.63;1.90;;;;;;;;;;4333665;33;20143;-72
2021/04/13 06:55:46;;;;;;;5.57;1.47;;;;;;;;;;4335218;33;20176;-73
2021/04/13 06:58:11;;;;;;;7.37;1.33;;;;;;;;;;4333122;33;20565;-72
2021/04/13 07:00:39;;;;;;;4.37;1.40;;;;;;;;;;4318966;33;20181;-73
2021/04/13 07:03:11;;;;;;;10.77;1.50;;;;;;;;;;4320448;33;20538;-71
2021/04/13 07:05:42;;;;;;;6.93;1.40;;;;;;;;;;4320643;33;20129;-73
2021/04/13 07:08:27;;;;;;;2.93;1.03;;;;;;;;;;4322128;33;20167;-72
2021/04/13 07:10:54;;;;;;;9.70;1.50;;;;;;;;;;4333297;33;20186;-74
2021/04/13 07:13:38;;;;;;;8.57;1.20;;;;;;;;;;4334497;33;20194;-73
2021/04/13 07:16:16;;;;;;;6.13;1.40;;;;;;;;;;4334743;33;20147;-73
2021/04/13 07:18:41;;;;;;;5.00;1.00;;;;;;;;;;4333170;33;20206;-73
2021/04/13 07:21:25;;;;;;;8.20;1.17;;;;;;;;;;4334692;33;20164;-73
2021/04/13 07:23:54;;;;;;;7.00;1.10;;;;;;;;;;4334234;33;20327;-72
2021/04/13 07:26:37;;;;;;;6.20;1.50;;;;;;;;;;4333344;33;20210;-71
2021/04/13 07:29:18;;;;;;;4.87;1.03;;;;;;;;;;4332557;33;20151;-73
2021/04/13 07:31:51;;;;;;;4.70;1.40;;;;;;;;;;4318499;33;20664;-72
2021/04/13 07:34:17;;;;;;;4.93;0.90;;;;;;;;;;4309415;33;20159;-73
2021/04/13 07:36:48;;;;;;;7.10;1.97;;;;;;;;;;4318515;33;20161;-72
2021/04/13 07:39:13;;;;;;;9.53;1.13;;;;;;;;;;4330879;33;20585;-72
2021/04/13 07:42:01;;;;;;;3.80;0.93;;;;;;;;;;4318182;33;20250;-72
2021/04/13 07:44:38;;;;;;;7.73;1.10;;;;;;;;;;4332110;33;20155;-72
2021/04/13 07:47:15;;;;;;;3.50;0.60;;;;;;;;;;4332256;33;20136;-74
2021/04/13 07:49:51;;;;;;;4.20;1.10;;;;;;;;;;4332300;33;20139;-73
2021/04/13 07:52:39;;;;;;;3.20;0.90;;;;;;;;;;4330971;33;20462;-71
2021/04/13 07:55:04;;;;;;;5.03;1.10;;;;;;;;;;4330674;33;20159;-73
2021/04/13 07:57:29;;;;;;;5.00;1.10;;;;;;;;;;4318512;33;20164;-74
2021/04/13 08:00:01;;;;;;;3.93;1.10;;;;;;;;;;4330495;33;20168;-72
2021/04/13 08:02:29;;;;;;;5.07;1.07;;;;;;;;;;4329494;33;20191;-72
2021/04/13 08:04:56;;;;;;;5.07;1.03;;;;;;;;;;4331597;33;20143;-73
2021/04/13 08:07:23;;;;;;;9.40;1.20;;;;;;;;;;4331724;33;20199;-73
2021/04/13 08:10:02;;;;;;;3.90;1.03;;;;;;;;;;4330365;33;20278;-73
2021/04/13 08:12:32;;;;;;;4.53;0.63;;;;;;;;;;4330465;33;20207;-74
2021/04/13 08:15:03;;;;;;;5.47;0.80;;;;;;;;;;4330244;33;20170;-73
2021/04/13 08:17:33;;;;;;;4.20;0.90;;;;;;;;;;4329765;33;20258;-72
2021/04/13 08:20:00;;;;;;;4.23;0.83;;;;;;;;;;4329882;33;20198;-72
2021/04/13 08:22:26;;;;;;;6.33;0.97;;;;;;;;;;4329934;33;20647;-72
2021/04/13 08:24:56;;;;;;;6.03;1.00;;;;;;;;;;4331033;33;20498;-72
2021/04/13 08:27:31;;;;;;;3.13;0.80;;;;;;;;;;4331984;33;20133;-73
2021/04/13 08:30:15;;;;;;;5.57;0.90;;;;;;;;;;4317808;33;20232;-73
2021/04/13 08:33:02;;;;;;;7.57;1.30;;;;;;;;;;4330333;33;20175;-72
2021/04/13 08:35:50;;;;;;;4.57;0.97;;;;;;;;;;4331972;33;20230;-67
2021/04/13 08:38:27;;;;;;;3.93;0.80;;;;;;;;;;4329869;33;20168;-70
2021/04/13 08:41:00;;;;;;;4.73;0.70;;;;;;;;;;4317009;33;20171;-72
2021/04/13 08:43:49;;;;;;;6.70;1.20;;;;;;;;;;4329516;33;20570;-75
2021/04/13 08:46:18;;;;;;;8.90;1.03;;;;;;;;;;4332466;33;20189;-73
2021/04/13 08:49:01;;;;;;;5.03;1.10;;;;;;;;;;4331006;33;20574;-74
2021/04/13 08:51:36;;;;;;;5.07;0.73;;;;;;;;;;4328903;33;20163;-72
2021/04/13 08:54:14;;;;;;;6.53;1.10;;;;;;;;;;4329682;33;20524;-71
2021/04/13 08:56:51;;;;;;;5.73;0.90;;;;;;;;;;4331908;33;20158;-70
2021/04/13 08:59:31;;;;;;;5.73;1.10;;;;;;;;;;4328586;33;20151;-69
2021/04/13 09:02:22;;;;;;;5.37;1.20;;;;;;;;;;4330076;33;20618;-70
2021/04/13 09:04:58;;;;;;;4.53;0.90;;;;;;;;;;4330097;33;20578;-72
2021/04/13 09:07:29;;;;;;;3.33;0.90;;;;;;;;;;4329919;33;20177;-70
2021/04/13 09:10:13;;;;;;;7.70;1.20;;;;;;;;;;4330660;33;20215;-70
2021/04/13 09:12:41;;;;;;;2.30;0.80;;;;;;;;;;4331004;33;20163;-71
2021/04/13 09:15:20;;;;;;;3.30;1.00;;;;;;;;;;4329550;33;20589;-71
2021/04/13 09:17:54;;;;;;;2.70;0.80;;;;;;;;;;4328939;33;20195;-69
2021/04/13 09:20:24;;;;;;;3.03;1.00;;;;;;;;;;4330906;33;20159;-70
2021/04/13 09:22:56;;;;;;;4.80;1.07;;;;;;;;;;4330299;33;20159;-70
2021/04/13 09:25:32;;;;;;;6.93;1.10;;;;;;;;;;4310489;33;20156;-72
2021/04/13 09:28:15;;;;;;;2.37;1.83;;;;;;;;;;4329122;33;20238;-70
2021/04/13 09:30:42;;;;;;;4.53;0.83;;;;;;;;;;4317705;33;20156;-68
2021/04/13 09:33:13;;;;;;;4.93;1.03;;;;;;;;;;4330405;33;20191;-72
2021/04/13 09:35:38;;;;;;;3.13;1.03;;;;;;;;;;4329644;33;20221;-70
2021/04/13 09:38:14;;;;;;;3.47;0.80;;;;;;;;;;4329199;33;20159;-70
2021/04/13 09:40:45;;;;;;;3.57;0.87;;;;;;;;;;4331067;33;20671;-68
2021/04/13 09:43:26;;;;;;;3.10;0.87;;;;;;;;;;4329185;33;20604;-70
2021/04/13 09:45:56;;;;;;;7.60;1.30;;;;;;;;;;4328978;33;20167;-71
2021/04/13 09:48:40;;;;;;;6.83;1.20;;;;;;;;;;4327747;33;20221;-72
2021/04/13 09:51:14;;;;;;;3.50;0.90;;;;;;;;;;4329807;33;20187;-68
2021/04/13 09:53:47;;;;;;;7.73;1.30;;;;;;;;;;4330862;33;20162;-68
2021/04/13 09:56:15;;;;;;;4.10;1.20;;;;;;;;;;4330141;33;20566;-70
2021/04/13 09:59:07;;;;;;;2.97;1.07;;;;;;;;;;4325721;33;20250;-70
2021/04/13 10:01:40;;;;;;;4.28;0.93;;;;;;;;;;4315374;33;20614;-73
2021/04/13 10:04:17;;;;;;;3.83;1.00;;;;;;;;;;4327108;33;20194;-70
2021/04/13 10:06:50;;;;;;;2.17;0.82;;;;;;;;;;4315316;33;20132;-71
2021/04/13 10:09:25;;;;;;;4.50;1.23;;;;;;;;;;4314980;33;20205;-70
2021/04/13 10:12:07;;;;;;;5.53;1.20;;;;;;;;;;4315149;33;20144;-70
2021/04/13 10:14:45;;;;;;;6.80;1.23;;;;;;;;;;4338574;33;20186;-69
2021/04/13 10:17:26;;;;;;;3.58;1.15;;;;;;;;;;4330322;33;20444;-72
2021/04/13 10:20:15;;;;;;;2.53;1.05;;;;;;;;;;4330801;33;20166;-71
2021/04/13 10:23:03;;;;;;;4.35;1.10;;;;;;;;;;4326606;33;20195;-71
2021/04/13 10:25:29;;;;;;;5.40;1.10;;;;;;;;;;4329663;33;20531;-71
2021/04/13 10:28:13;;;;;;;5.20;1.23;;;;;;;;;;4327570;33;20207;-68
2021/04/13 10:30:44;;;;;;;3.70;1.00;;;;;;;;;;4327489;33;20143;-70
2021/04/13 10:33:09;;;;;;;4.30;1.27;;;;;;;;;;4329189;33;20194;-73
2021/04/13 10:35:47;;;;;;;4.75;1.20;;;;;;;;;;4329687;33;20167;-70
2021/04/13 10:38:26;;;;;;;5.05;1.10;;;;;;;;;;4328651;33;20201;-70
2021/04/13 10:40:51;;;;;;;4.50;1.00;;;;;;;;;;4324140;33;20152;-71
2021/04/13 10:43:35;;;;;;;2.45;1.23;;;;;;;;;;4320730;33;20186;-70
2021/04/13 10:46:13;;;;;;;4.62;1.17;;;;;;;;;;4329479;33;20168;-71
2021/04/13 10:48:43;;;;;;;6.67;1.30;;;;;;;;;;4329743;33;20183;-71
2021/04/13 10:51:08;;;;;;;4.82;1.27;;;;;;;;;;4328681;33;20241;-68
2021/04/13 10:53:52;;;;;;;3.17;1.43;;;;;;;;;;4330012;33;20132;-72
2021/04/13 10:56:26;;;;;;;3.00;1.25;;;;;;;;;;4329865;33;20136;-70
2021/04/13 10:58:55;;;;;;;3.70;1.23;;;;;;;;;;4329370;33;20155;-70
2021/04/13 11:01:30;;;;;;;3.42;1.23;;;;;;;;;;4327840;33;20229;-70
2021/04/13 11:03:58;;;;;;;3.03;1.30;;;;;;;;;;4331390;33;20589;-72
2021/04/13 11:06:42;;;;;;;2.53;1.20;;;;;;;;;;4330898;33;20580;-72
2021/04/13 11:09:08;;;;;;;6.35;1.35;;;;;;;;;;4330889;33;20516;-72
2021/04/13 11:12:08;;;;;;;3.40;1.60;;;;;;;;;;4332496;33;20144;-70
2021/04/13 11:14:52;;;;;;;2.10;1.20;;;;;;;;;;4315047;33;20199;-69
2021/04/13 11:17:37;;;;;;;4.45;1.55;;;;;;;;;;4331009;33;20242;-71
2021/04/13 11:20:22;;;;;;;4.07;1.37;;;;;;;;;;4332096;33;20132;-73
2021/04/13 11:23:06;;;;;;;3.80;1.52;;;;;;;;;;4331704;33;20277;-71
2021/04/13 11:25:42;;;;;;;3.75;1.45;;;;;;;;;;4339039;33;20340;-72
2021/04/13 11:28:26;;;;;;;3.05;1.30;;;;;;;;;;4328846;33;20275;-72
2021/04/13 11:31:04;;;;;;;1.90;1.20;;;;;;;;;;4318224;33;20186;-71
2021/04/13 11:33:35;;;;;;;3.03;1.25;;;;;;;;;;4332390;33;20150;-69
2021/04/13 11:36:19;;;;;;;3.10;1.23;;;;;;;;;;4331894;33;20219;-69
2021/04/13 11:38:44;;;;;;;3.67;1.40;;;;;;;;;;4331773;33;20174;-71
2021/04/13 11:41:28;;;;;;;4.62;1.20;;;;;;;;;;4330968;33;20594;-71
2021/04/13 11:43:56;;;;;;;3.42;1.27;;;;;;;;;;4331752;33;20217;-70
2021/04/13 11:46:26;;;;;;;2.75;1.10;;;;;;;;;;4318460;33;20426;-68
2021/04/13 11:49:02;;;;;;;3.15;1.52;;;;;;;;;;4332574;33;20128;-73
2021/04/13 11:51:27;;;;;;;2.62;1.42;;;;;;;;;;4332229;33;20580;-70
2021/04/13 11:53:53;;;;;;;2.83;1.50;;;;;;;;;;4331830;33;20143;-74
2021/04/13 11:56:21;;;;;;;4.50;1.50;;;;;;;;;;4330252;33;20276;-70
2021/04/13 11:59:06;;;;;;;3.95;1.40;;;;;;;;;;4329942;33;20314;-73
2021/04/13 12:01:31;;;;;;;2.20;1.35;;;;;;;;;;4326044;33;20679;-72
2021/04/13 12:04:03;;;;;;;4.47;1.42;;;;;;;;;;4332154;33;20164;-73
2021/04/13 12:06:47;;;;;;;2.50;1.12;;;;;;;;;;4330327;33;20214;-73
2021/04/13 12:09:32;;;;;;;2.42;1.27;;;;;;;;;;4329899;33;20160;-71
2021/04/13 12:11:57;;;;;;;2.35;1.17;;;;;;;;;;4332697;33;20163;-68
2021/04/13 12:14:30;;;;;;;3.90;1.10;;;;;;;;;;4331166;33;20131;-71
2021/04/13 12:16:55;;;;;;;2.80;1.20;;;;;;;;;;4330027;33;20347;-67
2021/04/13 12:19:22;;;;;;;5.65;1.77;;;;;;;;;;4332123;33;20132;-72
2021/04/13 12:22:13;;;;;;;5.32;1.55;;;;;;;;;;4330448;33;20249;-73
2021/04/13 12:24:39;;;;;;;4.75;1.40;;;;;;;;;;4340778;33;20668;-69
2021/04/13 12:27:23;;;;;;;4.97;1.40;;;;;;;;;;4331145;33;20207;-74
2021/04/13 12:29:48;;;;;;;3.37;1.25;;;;;;;;;;4315253;33;20340;-73
2021/04/13 12:32:13;;;;;;;2.55;1.30;;;;;;;;;;4330224;33;20185;-73
2021/04/13 12:34:53;;;;;;;2.53;1.20;;;;;;;;;;4329756;33;20598;-69
2021/04/13 12:37:37;;;;;;;3.85;1.20;;;;;;;;;;4329471;33;20190;-72
2021/04/13 12:40:14;;;;;;;5.12;1.30;;;;;;;;;;4329239;33;20194;-71
2021/04/13 12:42:42;;;;;;;3.72;1.10;;;;;;;;;;4318998;33;20219;-72
2021/04/13 12:45:20;;;;;;;3.17;1.10;;;;;;;;;;4315735;33;20125;-71
2021/04/13 12:47:51;;;;;;;3.55;1.25;;;;;;;;;;4316342;33;20223;-70
2021/04/13 12:50:29;;;;;;;1.90;0.98;;;;;;;;;;4314674;33;20212;-72
2021/04/13 12:52:54;;;;;;;2.03;0.90;;;;;;;;;;4317769;33;20164;-68
2021/04/13 12:55:21;;;;;;;4.15;1.08;;;;;;;;;;4341449;33;20218;-71
2021/04/13 12:57:55;;;;;;;3.97;1.10;;;;;;;;;;4330006;33;20233;-72
2021/04/13 13:00:22;;;;;;;5.30;1.10;;;;;;;;;;4330346;33;20151;-72
2021/04/13 13:02:49;;;;;;;3.58;1.10;;;;;;;;;;4329203;33;20164;-73
2021/04/13 13:05:22;;;;;;;2.15;1.23;;;;;;;;;;4323219;33;20198;-69
2021/04/13 13:08:01;;;;;;;6.07;1.50;;;;;;;;;;4329107;33;20179;-73
2021/04/13 13:10:28;;;;;;;4.15;1.30;;;;;;;;;;4330579;33;20136;-73
2021/04/13 13:12:59;;;;;;;2.75;1.10;;;;;;;;;;4331071;33;20154;-71
2021/04/13 13:15:29;;;;;;;3.70;1.52;;;;;;;;;;4329329;33;20562;-72
2021/04/13 13:17:55;;;;;;;2.58;1.25;;;;;;;;;;4330272;33;20171;-69
2021/04/13 13:20:31;;;;;;;2.67;1.40;;;;;;;;;;4329422;33;20191;-72
2021/04/13 13:22:56;;;;;;;4.78;1.42;;;;;;;;;;4329087;33;20163;-74
2021/04/13 13:25:22;;;;;;;5.87;1.60;;;;;;;;;;4329439;33;20628;-73
2021/04/13 13:27:48;;;;;;;4.95;1.40;;;;;;;;;;4328929;33;20282;-70
2021/04/13 13:30:14;;;;;;;2.58;1.45;;;;;;;;;;4342344;33;20234;-73
2021/04/13 13:32:40;;;;;;;3.15;1.30;;;;;;;;;;4328951;33;20179;-71
2021/04/13 13:35:07;;;;;;;3.70;1.20;;;;;;;;;;4329401;33;20510;-71
2021/04/13 13:37:37;;;;;;;3.10;1.40;;;;;;;;;;4331195;33;20230;-73
2021/04/13 13:40:06;;;;;;;3.15;1.10;;;;;;;;;;4328633;33;20172;-70
2021/04/13 13:42:31;;;;;;;3.25;1.02;;;;;;;;;;4328291;33;20156;-69
2021/04/13 13:44:58;;;;;;;3.55;1.30;;;;;;;;;;4329581;33;20167;-72
2021/04/13 13:47:30;;;;;;;2.67;1.25;;;;;;;;;;4329941;33;20151;-73
2021/04/13 13:49:56;;;;;;;4.10;1.40;;;;;;;;;;4330123;33;20166;-72
2021/04/13 13:52:42;;;;;;;3.20;1.10;;;;;;;;;;4329782;33;20252;-73
2021/04/13 13:55:16;;;;;;;2.95;1.30;;;;;;;;;;4330039;33;20174;-72
2021/04/13 13:57:42;;;;;;;3.30;1.40;;;;;;;;;;4328551;33;20201;-71
2021/04/13 14:00:28;;;;;;;2.35;1.20;;;;;;;;;;4330928;33;20202;-74
2021/04/13 14:03:04;;;;;;;2.45;1.30;;;;;;;;;;4328548;33;20218;-72
2021/04/13 14:05:34;;;;;;;3.65;1.35;;;;;;;;;;4329504;33;20210;-73
2021/04/13 14:08:13;;;;;;;2.30;1.00;;;;;;;;;;4328593;33;20203;-70
2021/04/13 14:10:40;;;;;;;3.15;1.30;;;;;;;;;;4330526;33;20237;-73
2021/04/13 14:13:06;;;;;;;3.28;1.42;;;;;;;;;;4318263;33;20230;-74
2021/04/13 14:15:34;;;;;;;3.15;1.10;;;;;;;;;;4330116;33;20163;-68
2021/04/13 14:18:05;;;;;;;2.22;1.30;;;;;;;;;;4330119;33;20270;-70
2021/04/13 14:20:30;;;;;;;4.35;1.48;;;;;;;;;;4328674;33;20234;-73
2021/04/13 14:23:06;;;;;;;2.30;1.77;;;;;;;;;;4329950;33;20565;-72
2021/04/13 14:25:32;;;;;;;3.03;1.70;;;;;;;;;;4329896;33;20249;-72
2021/04/13 14:28:09;;;;;;;5.37;1.90;;;;;;;;;;4326956;33;20187;-73
2021/04/13 14:30:34;;;;;;;5.35;2.05;;;;;;;;;;4327746;33;20623;-73
2021/04/13 14:32:59;;;;;;;1.95;1.60;;;;;;;;;;4327915;33;20160;-72
2021/04/13 14:35:24;;;;;;;8.13;2.20;;;;;;;;;;4330263;33;20163;-73
2021/04/13 14:37:50;;;;;;;4.63;1.80;;;;;;;;;;4329684;33;20167;-70
2021/04/13 14:40:18;;;;;;;2.53;1.83;;;;;;;;;;4331724;33;20687;-73
2021/04/13 14:42:43;;;;;;;2.55;1.70;;;;;;;;;;4326963;33;20187;-70
2021/04/13 14:45:09;;;;;;;2.00;1.73;;;;;;;;;;4318197;33;20163;-74
2021/04/13 14:47:35;;;;;;;4.10;1.80;;;;;;;;;;4331484;33;20137;-73
2021/04/13 14:50:04;;;;;;;4.35;1.95;;;;;;;;;;4331365;33;20640;-70
2021/04/13 14:52:29;;;;;;;4.18;1.70;;;;;;;;;;4332414;33;20245;-71
2021/04/13 14:54:54;;;;;;;4.15;2.08;;;;;;;;;;4332686;33;20214;-72
2021/04/13 14:57:20;;;;;;;3.08;1.77;;;;;;;;;;4319156;33;20159;-67
2021/04/13 14:59:46;;;;;;;3.25;1.98;;;;;;;;;;4343474;33;20536;-73
2021/04/13 15:02:11;;;;;;;3.87;1.87;;;;;;;;;;4333252;33;20173;-72
2021/04/13 15:04:37;;;;;;;3.37;1.87;;;;;;;;;;4331596;33;20160;-72
2021/04/13 15:07:02;;;;;;;4.87;2.83;;;;;;;;;;4332257;33;20132;-73
2021/04/13 15:09:29;;;;;;;3.85;2.60;;;;;;;;;;4332140;33;20145;-73
2021/04/13 15:11:54;;;;;;;3.00;2.10;;;;;;;;;;4332843;33;20151;-71